sensor_id;sensor_type;location;lat;lon;timestamp;pressure;altitude;pressure_sealevel;temperature;humidity
11440;BME280;5776;51.814;4.510;2022-11-04T00:01:45;100144.22;;;12.45;100.00
11440;BME280;5776;51.814;4.510;2022-11-04T00:04:14;100145.03;;;12.46;100.00
11440;BME280;5776;51.814;4.510;2022-11-04T00:06:40;100144.53;;;12.44;100.00
11440;BME280;5776;51.814;4.510;2022-11-04T00:09:09;100156.56;;;12.43;100.00
11440;BME280;5776;51.814;4.510;2022-11-04T00:11:36;100161.50;;;12.41;100.00
11440;BME280;5776;51.814;4.510;2022-11-04T00:14:21;100173.22;;;12.41;100.00
11440;BME280;5776;51.814;4.510;2022-11-04T00:16:46;100162.94;;;12.38;100.00
11440;BME280;5776;51.814;4.510;2022-11-04T00:19:31;100171.47;;;12.37;100.00
11440;BME280;5776;51.814;4.510;2022-11-04T00:22:16;100182.97;;;12.33;100.00
11440;BME280;5776;51.814;4.510;2022-11-04T00:25:00;100182.16;;;12.33;100.00
11440;BME280;5776;51.814;4.510;2022-11-04T00:27:45;100182.97;;;12.33;100.00
11440;BME280;5776;51.814;4.510;2022-11-04T00:30:43;100171.91;;;12.30;100.00
11440;BME280;5776;51.814;4.510;2022-11-04T00:33:09;100170.63;;;12.27;100.00
11440;BME280;5776;51.814;4.510;2022-11-04T00:35:55;100176.84;;;12.28;100.00
11440;BME280;5776;51.814;4.510;2022-11-04T00:38:23;100186.66;;;12.29;100.00
11440;BME280;5776;51.814;4.510;2022-11-04T00:40:49;100172.06;;;12.25;100.00
11440;BME280;5776;51.814;4.510;2022-11-04T00:43:15;100166.75;;;12.28;100.00
11440;BME280;5776;51.814;4.510;2022-11-04T00:45:41;100164.88;;;12.29;100.00
11440;BME280;5776;51.814;4.510;2022-11-04T00:48:08;100181.22;;;12.29;100.00
11440;BME280;5776;51.814;4.510;2022-11-04T00:50:34;100176.84;;;12.28;100.00
11440;BME280;5776;51.814;4.510;2022-11-04T00:53:01;100168.84;;;12.23;100.00
11440;BME280;5776;51.814;4.510;2022-11-04T00:55:27;100182.44;;;12.23;100.00
11440;BME280;5776;51.814;4.510;2022-11-04T00:57:54;100181.66;;;12.22;100.00
11440;BME280;5776;51.814;4.510;2022-11-04T01:00:20;100190.91;;;12.21;100.00
11440;BME280;5776;51.814;4.510;2022-11-04T01:02:46;100195.41;;;12.17;100.00
11440;BME280;5776;51.814;4.510;2022-11-04T01:05:12;100192.19;;;12.15;100.00
11440;BME280;5776;51.814;4.510;2022-11-04T01:07:38;100203.72;;;12.12;100.00
11440;BME280;5776;51.814;4.510;2022-11-04T01:10:05;100197.94;;;12.14;100.00
11440;BME280;5776;51.814;4.510;2022-11-04T01:12:31;100209.78;;;12.09;100.00
11440;BME280;5776;51.814;4.510;2022-11-04T01:14:57;100215.22;;;12.09;100.00
11440;BME280;5776;51.814;4.510;2022-11-04T01:17:23;100226.59;;;12.11;100.00
11440;BME280;5776;51.814;4.510;2022-11-04T01:19:49;100228.34;;;12.07;99.64
11440;BME280;5776;51.814;4.510;2022-11-04T01:22:15;100240.81;;;12.08;100.00
11440;BME280;5776;51.814;4.510;2022-11-04T01:24:41;100241.94;;;12.07;100.00
11440;BME280;5776;51.814;4.510;2022-11-04T01:27:08;100240.31;;;12.06;100.00
11440;BME280;5776;51.814;4.510;2022-11-04T01:29:34;100241.47;;;12.05;100.00
11440;BME280;5776;51.814;4.510;2022-11-04T01:32:00;100237.13;;;12.04;100.00
11440;BME280;5776;51.814;4.510;2022-11-04T01:34:26;100232.50;;;12.04;100.00
11440;BME280;5776;51.814;4.510;2022-11-04T01:36:52;100240.97;;;12.03;100.00
11440;BME280;5776;51.814;4.510;2022-11-04T01:39:18;100233.91;;;12.02;100.00
11440;BME280;5776;51.814;4.510;2022-11-04T01:41:44;100234.41;;;12.04;100.00
11440;BME280;5776;51.814;4.510;2022-11-04T01:47:15;100247.53;;;12.02;100.00
11440;BME280;5776;51.814;4.510;2022-11-04T01:49:43;100249.47;;;12.01;100.00
11440;BME280;5776;51.814;4.510;2022-11-04T01:52:15;100245.91;;;12.01;100.00
11440;BME280;5776;51.814;4.510;2022-11-04T01:54:47;100239.38;;;12.02;100.00
11440;BME280;5776;51.814;4.510;2022-11-04T01:57:17;100246.72;;;12.01;100.00
11440;BME280;5776;51.814;4.510;2022-11-04T01:59:44;100254.41;;;11.99;100.00
11440;BME280;5776;51.814;4.510;2022-11-04T02:02:10;100259.03;;;11.99;100.00
11440;BME280;5776;51.814;4.510;2022-11-04T02:04:38;100262.56;;;11.99;100.00
11440;BME280;5776;51.814;4.510;2022-11-04T02:07:07;100257.41;;;11.98;100.00
11440;BME280;5776;51.814;4.510;2022-11-04T02:09:35;100255.81;;;11.97;100.00
11440;BME280;5776;51.814;4.510;2022-11-04T02:12:02;100268.94;;;11.95;100.00
11440;BME280;5776;51.814;4.510;2022-11-04T02:14:47;100269.56;;;11.92;100.00
11440;BME280;5776;51.814;4.510;2022-11-04T02:20:23;100267.94;;;11.91;100.00
11440;BME280;5776;51.814;4.510;2022-11-04T02:23:25;100268.56;;;11.87;100.00
11440;BME280;5776;51.814;4.510;2022-11-04T02:28:37;100272.97;;;11.83;100.00
11440;BME280;5776;51.814;4.510;2022-11-04T02:31:38;100275.22;;;11.81;100.00
11440;BME280;5776;51.814;4.510;2022-11-04T02:37:00;100267.19;;;11.76;100.00
11440;BME280;5776;51.814;4.510;2022-11-04T02:45:07;100267.19;;;11.76;100.00
11440;BME280;5776;51.814;4.510;2022-11-04T02:47:37;100265.28;;;11.77;100.00
11440;BME280;5776;51.814;4.510;2022-11-04T02:50:10;100264.47;;;11.76;100.00
11440;BME280;5776;51.814;4.510;2022-11-04T02:52:48;100279.16;;;11.75;100.00
11440;BME280;5776;51.814;4.510;2022-11-04T02:55:25;100275.66;;;11.75;100.00
11440;BME280;5776;51.814;4.510;2022-11-04T02:57:55;100275.66;;;11.75;100.00
11440;BME280;5776;51.814;4.510;2022-11-04T03:00:23;100274.34;;;11.72;100.00
11440;BME280;5776;51.814;4.510;2022-11-04T03:03:00;100281.22;;;11.70;100.00
11440;BME280;5776;51.814;4.510;2022-11-04T03:05:32;100282.63;;;11.67;100.00
11440;BME280;5776;51.814;4.510;2022-11-04T03:08:02;100280.22;;;11.65;100.00
11440;BME280;5776;51.814;4.510;2022-11-04T03:10:35;100275.56;;;11.66;100.00
11440;BME280;5776;51.814;4.510;2022-11-04T03:13:11;100275.91;;;11.64;100.00
11440;BME280;5776;51.814;4.510;2022-11-04T03:15:44;100277.50;;;11.65;100.00
11440;BME280;5776;51.814;4.510;2022-11-04T03:21:14;100281.63;;;11.63;100.00
11440;BME280;5776;51.814;4.510;2022-11-04T03:23:40;100286.28;;;11.62;100.00
11440;BME280;5776;51.814;4.510;2022-11-04T03:26:13;100280.84;;;11.62;100.00
11440;BME280;5776;51.814;4.510;2022-11-04T03:28:51;100280.03;;;11.62;100.00
11440;BME280;5776;51.814;4.510;2022-11-04T03:31:34;100289.78;;;11.63;100.00
11440;BME280;5776;51.814;4.510;2022-11-04T03:34:03;100289.28;;;11.61;100.00
11440;BME280;5776;51.814;4.510;2022-11-04T03:36:29;100285.78;;;11.60;100.00
11440;BME280;5776;51.814;4.510;2022-11-04T03:38:55;100287.69;;;11.60;100.00
11440;BME280;5776;51.814;4.510;2022-11-04T03:43:57;100292.00;;;11.61;100.00
11440;BME280;5776;51.814;4.510;2022-11-04T03:46:22;100299.69;;;11.59;100.00
11440;BME280;5776;51.814;4.510;2022-11-04T03:48:52;100294.25;;;11.59;100.00
11440;BME280;5776;51.814;4.510;2022-11-04T03:51:18;100303.50;;;11.58;100.00
11440;BME280;5776;51.814;4.510;2022-11-04T03:53:44;100300.78;;;11.58;100.00
11440;BME280;5776;51.814;4.510;2022-11-04T03:59:28;100308.44;;;11.56;100.00
11440;BME280;5776;51.814;4.510;2022-11-04T04:02:08;100314.22;;;11.54;100.00
11440;BME280;5776;51.814;4.510;2022-11-04T04:04:40;100312.59;;;11.53;100.00
11440;BME280;5776;51.814;4.510;2022-11-04T04:07:16;100314.50;;;11.53;100.00
11440;BME280;5776;51.814;4.510;2022-11-04T04:09:53;100319.44;;;11.51;100.00
11440;BME280;5776;51.814;4.510;2022-11-04T04:12:35;100313.53;;;11.49;100.00
11440;BME280;5776;51.814;4.510;2022-11-04T04:15:10;100316.84;;;11.45;100.00
11440;BME280;5776;51.814;4.510;2022-11-04T04:17:45;100321.47;;;11.45;100.00
11440;BME280;5776;51.814;4.510;2022-11-04T04:20:17;100331.06;;;11.42;100.00
11440;BME280;5776;51.814;4.510;2022-11-04T04:22:50;100321.31;;;11.41;100.00
11440;BME280;5776;51.814;4.510;2022-11-04T04:25:18;100330.06;;;11.38;100.00
11440;BME280;5776;51.814;4.510;2022-11-04T04:28:05;100340.44;;;11.36;100.00
11440;BME280;5776;51.814;4.510;2022-11-04T04:30:31;100339.63;;;11.36;100.00
11440;BME280;5776;51.814;4.510;2022-11-04T04:33:02;100346.47;;;11.33;100.00
11440;BME280;5776;51.814;4.510;2022-11-04T04:35:35;100347.59;;;11.32;100.00
11440;BME280;5776;51.814;4.510;2022-11-04T04:38:26;100348.22;;;11.29;100.00
11440;BME280;5776;51.814;4.510;2022-11-04T04:41:28;100343.06;;;11.28;99.79
11440;BME280;5776;51.814;4.510;2022-11-04T04:44:22;100352.63;;;11.25;100.00
11440;BME280;5776;51.814;4.510;2022-11-04T04:47:08;100347.81;;;11.22;99.97
11440;BME280;5776;51.814;4.510;2022-11-04T04:49:35;100353.25;;;11.22;99.90
11440;BME280;5776;51.814;4.510;2022-11-04T04:52:03;100366.03;;;11.21;100.00
11440;BME280;5776;51.814;4.510;2022-11-04T04:54:31;100362.03;;;11.19;99.63
11440;BME280;5776;51.814;4.510;2022-11-04T04:56:57;100363.91;;;11.18;99.88
11440;BME280;5776;51.814;4.510;2022-11-04T04:59:23;100363.09;;;11.18;99.94
11440;BME280;5776;51.814;4.510;2022-11-04T05:01:49;100371.88;;;11.15;99.71
11440;BME280;5776;51.814;4.510;2022-11-04T05:04:14;100375.72;;;11.14;99.67
11440;BME280;5776;51.814;4.510;2022-11-04T05:06:40;100375.72;;;11.14;99.63
11440;BME280;5776;51.814;4.510;2022-11-04T05:09:06;100378.72;;;11.12;99.73
11440;BME280;5776;51.814;4.510;2022-11-04T05:11:32;100377.41;;;11.10;99.41
11440;BME280;5776;51.814;4.510;2022-11-04T05:13:58;100389.41;;;11.09;99.24
11440;BME280;5776;51.814;4.510;2022-11-04T05:16:24;100391.00;;;11.10;100.00
11440;BME280;5776;51.814;4.510;2022-11-04T05:18:51;100399.16;;;11.10;99.33
11440;BME280;5776;51.814;4.510;2022-11-04T05:21:16;100403.00;;;11.09;99.69
11440;BME280;5776;51.814;4.510;2022-11-04T05:23:43;100399.78;;;11.07;100.00
11440;BME280;5776;51.814;4.510;2022-11-04T05:26:09;100397.84;;;11.07;100.00
11440;BME280;5776;51.814;4.510;2022-11-04T05:28:35;100401.69;;;11.06;99.66
11440;BME280;5776;51.814;4.510;2022-11-04T05:31:04;100408.72;;;11.07;100.00
11440;BME280;5776;51.814;4.510;2022-11-04T05:33:31;100411.72;;;11.06;100.00
11440;BME280;5776;51.814;4.510;2022-11-04T05:36:11;100406.28;;;11.06;100.00
11440;BME280;5776;51.814;4.510;2022-11-04T05:38:38;100404.69;;;11.05;100.00
11440;BME280;5776;51.814;4.510;2022-11-04T05:41:05;100413.66;;;11.05;100.00
11440;BME280;5776;51.814;4.510;2022-11-04T05:43:32;100410.13;;;11.05;100.00
11440;BME280;5776;51.814;4.510;2022-11-04T05:45:59;100419.88;;;11.06;100.00
11440;BME280;5776;51.814;4.510;2022-11-04T05:48:25;100412.56;;;11.06;100.00
11440;BME280;5776;51.814;4.510;2022-11-04T05:50:51;100426.63;;;11.08;100.00
11440;BME280;5776;51.814;4.510;2022-11-04T05:53:17;100425.03;;;11.07;100.00
11440;BME280;5776;51.814;4.510;2022-11-04T05:55:43;100437.81;;;11.07;100.00
11440;BME280;5776;51.814;4.510;2022-11-04T05:58:09;100436.19;;;11.06;100.00
11440;BME280;5776;51.814;4.510;2022-11-04T06:00:35;100439.72;;;11.06;100.00
11440;BME280;5776;51.814;4.510;2022-11-04T06:03:01;100440.81;;;11.05;100.00
11440;BME280;5776;51.814;4.510;2022-11-04T06:05:27;100442.72;;;11.05;100.00
11440;BME280;5776;51.814;4.510;2022-11-04T06:07:54;100457.13;;;11.05;100.00
11440;BME280;5776;51.814;4.510;2022-11-04T06:10:21;100449.78;;;11.06;100.00
11440;BME280;5776;51.814;4.510;2022-11-04T06:12:47;100446.16;;;11.10;100.00
11440;BME280;5776;51.814;4.510;2022-11-04T06:15:13;100453.78;;;11.08;100.00
11440;BME280;5776;51.814;4.510;2022-11-04T06:17:39;100456.84;;;11.07;100.00
11440;BME280;5776;51.814;4.510;2022-11-04T06:20:05;100457.13;;;11.05;100.00
11440;BME280;5776;51.814;4.510;2022-11-04T06:22:31;100461.75;;;11.05;100.00
11440;BME280;5776;51.814;4.510;2022-11-04T06:24:57;100464.47;;;11.05;100.00
11440;BME280;5776;51.814;4.510;2022-11-04T06:27:23;100465.59;;;11.03;100.00
11440;BME280;5776;51.814;4.510;2022-11-04T06:29:49;100474.53;;;11.04;100.00
11440;BME280;5776;51.814;4.510;2022-11-04T06:32:17;100475.34;;;11.05;100.00
11440;BME280;5776;51.814;4.510;2022-11-04T06:34:43;100469.91;;;11.05;100.00
11440;BME280;5776;51.814;4.510;2022-11-04T06:37:09;100478.34;;;11.03;100.00
11440;BME280;5776;51.814;4.510;2022-11-04T06:39:35;100477.25;;;11.04;100.00
11440;BME280;5776;51.814;4.510;2022-11-04T06:42:02;100479.19;;;11.03;100.00
11440;BME280;5776;51.814;4.510;2022-11-04T06:44:29;100490.06;;;11.03;100.00
11440;BME280;5776;51.814;4.510;2022-11-04T06:46:55;100487.34;;;11.03;100.00
11440;BME280;5776;51.814;4.510;2022-11-04T06:49:21;100484.63;;;11.03;100.00
11440;BME280;5776;51.814;4.510;2022-11-04T06:51:48;100487.34;;;11.03;100.00
11440;BME280;5776;51.814;4.510;2022-11-04T06:54:15;100488.41;;;11.02;100.00
11440;BME280;5776;51.814;4.510;2022-11-04T06:56:42;100496.56;;;11.02;100.00
11440;BME280;5776;51.814;4.510;2022-11-04T06:59:13;100496.06;;;11.00;100.00
11440;BME280;5776;51.814;4.510;2022-11-04T07:01:40;100502.63;;;10.99;100.00
11440;BME280;5776;51.814;4.510;2022-11-04T07:04:06;100506.13;;;11.00;100.00
11440;BME280;5776;51.814;4.510;2022-11-04T07:06:32;100504.53;;;10.99;100.00
11440;BME280;5776;51.814;4.510;2022-11-04T07:09:00;100510.78;;;10.99;100.00
11440;BME280;5776;51.814;4.510;2022-11-04T07:11:28;100505.34;;;10.99;100.00
11440;BME280;5776;51.814;4.510;2022-11-04T07:13:54;100511.06;;;10.98;100.00
11440;BME280;5776;51.814;4.510;2022-11-04T07:16:19;100514.88;;;10.97;100.00
11440;BME280;5776;51.814;4.510;2022-11-04T07:18:45;100514.88;;;10.97;100.00
11440;BME280;5776;51.814;4.510;2022-11-04T07:21:12;100517.88;;;10.95;100.00
11440;BME280;5776;51.814;4.510;2022-11-04T07:23:38;100516.28;;;10.94;100.00
11440;BME280;5776;51.814;4.510;2022-11-04T07:26:06;100520.69;;;10.57;100.00
11440;BME280;5776;51.814;4.510;2022-11-04T07:28:33;100516.97;;;10.86;100.00
11440;BME280;5776;51.814;4.510;2022-11-04T07:31:00;100513.38;;;11.05;100.00
11440;BME280;5776;51.814;4.510;2022-11-04T07:33:27;100521.06;;;11.16;100.00
11440;BME280;5776;51.814;4.510;2022-11-04T07:35:54;100521.28;;;11.20;100.00
11440;BME280;5776;51.814;4.510;2022-11-04T07:38:21;100522.88;;;11.21;100.00
11440;BME280;5776;51.814;4.510;2022-11-04T07:40:47;100529.94;;;11.22;100.00
11440;BME280;5776;51.814;4.510;2022-11-04T07:43:14;100522.28;;;11.24;100.00
11440;BME280;5776;51.814;4.510;2022-11-04T07:45:40;100531.53;;;11.23;100.00
11440;BME280;5776;51.814;4.510;2022-11-04T07:48:07;100532.06;;;11.25;100.00
11440;BME280;5776;51.814;4.510;2022-11-04T07:50:32;100533.69;;;11.26;100.00
11440;BME280;5776;51.814;4.510;2022-11-04T07:52:58;100531.44;;;11.28;100.00
11440;BME280;5776;51.814;4.510;2022-11-04T07:55:24;100540.44;;;11.29;100.00
11440;BME280;5776;51.814;4.510;2022-11-04T07:57:53;100542.84;;;11.30;100.00
11440;BME280;5776;51.814;4.510;2022-11-04T08:00:19;100545.53;;;11.30;100.00
11440;BME280;5776;51.814;4.510;2022-11-04T08:02:45;100551.78;;;11.31;100.00
11440;BME280;5776;51.814;4.510;2022-11-04T08:05:13;100546.66;;;11.29;100.00
11440;BME280;5776;51.814;4.510;2022-11-04T08:07:39;100557.22;;;11.31;100.00
11440;BME280;5776;51.814;4.510;2022-11-04T08:10:05;100560.78;;;11.31;100.00
11440;BME280;5776;51.814;4.510;2022-11-04T08:12:32;100570.00;;;11.30;100.00
11440;BME280;5776;51.814;4.510;2022-11-04T08:14:58;100576.25;;;11.31;100.00
11440;BME280;5776;51.814;4.510;2022-11-04T08:17:23;100572.44;;;11.32;100.00
11440;BME280;5776;51.814;4.510;2022-11-04T08:19:49;100573.25;;;11.32;100.00
11440;BME280;5776;51.814;4.510;2022-11-04T08:22:15;100570.53;;;11.32;100.00
11440;BME280;5776;51.814;4.510;2022-11-04T08:24:41;100566.69;;;11.33;100.00
11440;BME280;5776;51.814;4.510;2022-11-04T08:27:07;100584.94;;;11.33;100.00
11440;BME280;5776;51.814;4.510;2022-11-04T08:29:35;100585.72;;;11.33;100.00
11440;BME280;5776;51.814;4.510;2022-11-04T08:32:02;100586.56;;;11.34;100.00
11440;BME280;5776;51.814;4.510;2022-11-04T08:34:28;100597.13;;;11.35;100.00
11440;BME280;5776;51.814;4.510;2022-11-04T08:36:54;100612.34;;;11.36;100.00
11440;BME280;5776;51.814;4.510;2022-11-04T08:39:22;100608.00;;;11.35;100.00
11440;BME280;5776;51.814;4.510;2022-11-04T08:41:49;100609.63;;;11.36;100.00
11440;BME280;5776;51.814;4.510;2022-11-04T08:44:15;100615.34;;;11.35;100.00
11440;BME280;5776;51.814;4.510;2022-11-04T08:46:43;100627.38;;;11.15;100.00
11440;BME280;5776;51.814;4.510;2022-11-04T08:49:10;100621.81;;;11.06;100.00
11440;BME280;5776;51.814;4.510;2022-11-04T08:51:40;100620.56;;;10.98;100.00
11440;BME280;5776;51.814;4.510;2022-11-04T08:54:07;100629.00;;;10.97;100.00
11440;BME280;5776;51.814;4.510;2022-11-04T08:56:35;100633.03;;;10.99;100.00
11440;BME280;5776;51.814;4.510;2022-11-04T08:59:02;100620.25;;;11.00;100.00
11440;BME280;5776;51.814;4.510;2022-11-04T09:01:31;100622.47;;;10.98;100.00
11440;BME280;5776;51.814;4.510;2022-11-04T09:03:58;100635.75;;;10.99;100.00
11440;BME280;5776;51.814;4.510;2022-11-04T09:06:27;100640.41;;;10.99;100.00
11440;BME280;5776;51.814;4.510;2022-11-04T09:08:53;100648.25;;;11.00;100.00
11440;BME280;5776;51.814;4.510;2022-11-04T09:11:22;100644.63;;;11.05;100.00
11440;BME280;5776;51.814;4.510;2022-11-04T09:13:48;100651.09;;;11.09;100.00
11440;BME280;5776;51.814;4.510;2022-11-04T09:16:15;100649.47;;;11.08;100.00
11440;BME280;5776;51.814;4.510;2022-11-04T09:18:41;100661.19;;;11.09;100.00
11440;BME280;5776;51.814;4.510;2022-11-04T09:21:08;100666.63;;;11.09;100.00
11440;BME280;5776;51.814;4.510;2022-11-04T09:23:34;100661.97;;;11.09;100.00
11440;BME280;5776;51.814;4.510;2022-11-04T09:26:06;100663.50;;;11.15;100.00
11440;BME280;5776;51.814;4.510;2022-11-04T09:28:33;100657.19;;;11.20;100.00
11440;BME280;5776;51.814;4.510;2022-11-04T09:31:03;100670.78;;;11.20;100.00
11440;BME280;5776;51.814;4.510;2022-11-04T09:33:29;100664.44;;;11.24;100.00
11440;BME280;5776;51.814;4.510;2022-11-04T09:35:56;100667.09;;;11.30;100.00
11440;BME280;5776;51.814;4.510;2022-11-04T09:38:23;100671.13;;;11.32;100.00
11440;BME280;5776;51.814;4.510;2022-11-04T09:40:50;100682.28;;;11.31;100.00
11440;BME280;5776;51.814;4.510;2022-11-04T09:45:54;100686.31;;;11.33;100.00
11440;BME280;5776;51.814;4.510;2022-11-04T09:48:48;100688.47;;;11.36;100.00
11440;BME280;5776;51.814;4.510;2022-11-04T09:51:18;100699.34;;;11.36;100.00
11440;BME280;5776;51.814;4.510;2022-11-04T09:53:50;100696.13;;;11.34;100.00
11440;BME280;5776;51.814;4.510;2022-11-04T09:56:34;100707.50;;;11.36;100.00
11440;BME280;5776;51.814;4.510;2022-11-04T09:59:04;100712.34;;;11.39;100.00
11440;BME280;5776;51.814;4.510;2022-11-04T10:01:34;100720.50;;;11.39;100.00
11440;BME280;5776;51.814;4.510;2022-11-04T10:12:44;100730.94;;;11.51;100.00
11440;BME280;5776;51.814;4.510;2022-11-04T10:17:57;100728.78;;;11.48;100.00
11440;BME280;5776;51.814;4.510;2022-11-04T10:23:32;100730.97;;;11.46;100.00
11440;BME280;5776;51.814;4.510;2022-11-04T10:26:22;100736.13;;;11.48;100.00
11440;BME280;5776;51.814;4.510;2022-11-04T10:28:50;100742.38;;;11.48;100.00
11440;BME280;5776;51.814;4.510;2022-11-04T10:31:17;100741.06;;;11.45;100.00
11440;BME280;5776;51.814;4.510;2022-11-04T10:33:51;100747.31;;;11.46;100.00
11440;BME280;5776;51.814;4.510;2022-11-04T10:36:18;100752.75;;;11.46;100.00
11440;BME280;5776;51.814;4.510;2022-11-04T10:38:51;100753.06;;;11.44;100.00
11440;BME280;5776;51.814;4.510;2022-11-04T10:43:50;100759.00;;;11.46;100.00
11440;BME280;5776;51.814;4.510;2022-11-04T10:46:36;100763.34;;;11.48;100.00
11440;BME280;5776;51.814;4.510;2022-11-04T10:51:55;100772.59;;;11.46;100.00
11440;BME280;5776;51.814;4.510;2022-11-04T10:54:23;100771.50;;;11.48;100.00
11440;BME280;5776;51.814;4.510;2022-11-04T10:56:52;100779.66;;;11.48;100.00
11440;BME280;5776;51.814;4.510;2022-11-04T11:01:58;100777.44;;;11.50;100.00
11440;BME280;5776;51.814;4.510;2022-11-04T11:04:31;100780.16;;;11.50;100.00
11440;BME280;5776;51.814;4.510;2022-11-04T11:07:08;100780.16;;;11.50;100.00
11440;BME280;5776;51.814;4.510;2022-11-04T11:09:53;100783.69;;;11.50;100.00
11440;BME280;5776;51.814;4.510;2022-11-04T11:12:25;100786.94;;;11.52;100.00
11440;BME280;5776;51.814;4.510;2022-11-04T11:14:55;100793.97;;;11.53;100.00
11440;BME280;5776;51.814;4.510;2022-11-04T11:19:52;100793.69;;;11.55;100.00
11440;BME280;5776;51.814;4.510;2022-11-04T11:22:34;100797.22;;;11.55;100.00
11440;BME280;5776;51.814;4.510;2022-11-04T11:25:21;100800.44;;;11.57;100.00
11440;BME280;5776;51.814;4.510;2022-11-04T11:27:56;100803.16;;;11.57;100.00
11440;BME280;5776;51.814;4.510;2022-11-04T11:35:50;100812.06;;;11.63;100.00
11440;BME280;5776;51.814;4.510;2022-11-04T11:38:21;100820.72;;;11.65;100.00
11440;BME280;5776;51.814;4.510;2022-11-04T11:40:49;100827.78;;;11.66;100.00
11440;BME280;5776;51.814;4.510;2022-11-04T11:45:49;100836.47;;;11.68;100.00
11440;BME280;5776;51.814;4.510;2022-11-04T11:48:37;100837.50;;;11.72;100.00
11440;BME280;5776;51.814;4.510;2022-11-04T11:51:04;100844.53;;;11.73;100.00
11440;BME280;5776;51.814;4.510;2022-11-04T11:53:30;100851.31;;;11.76;100.00
11440;BME280;5776;51.814;4.510;2022-11-04T11:58:37;100860.31;;;11.76;100.00
11440;BME280;5776;51.814;4.510;2022-11-04T12:01:28;100855.00;;;12.04;100.00
11440;BME280;5776;51.814;4.510;2022-11-04T12:03:55;100850.00;;;12.25;100.00
11440;BME280;5776;51.814;4.510;2022-11-04T12:15:02;100848.75;;;12.50;100.00
11440;BME280;5776;51.814;4.510;2022-11-04T12:23:07;100856.84;;;12.83;100.00
11440;BME280;5776;51.814;4.510;2022-11-04T12:45:27;100891.69;;;11.68;100.00
11440;BME280;5776;51.814;4.510;2022-11-04T12:48:08;100905.34;;;11.63;100.00
11440;BME280;5776;51.814;4.510;2022-11-04T12:50:43;100905.13;;;11.60;100.00
11440;BME280;5776;51.814;4.510;2022-11-04T12:58:39;100909.13;;;11.49;100.00
11440;BME280;5776;51.814;4.510;2022-11-04T13:01:25;100921.06;;;11.48;100.00
11440;BME280;5776;51.814;4.510;2022-11-04T13:03:58;100932.63;;;11.58;100.00
11440;BME280;5776;51.814;4.510;2022-11-04T13:09:35;100938.97;;;11.54;100.00
11440;BME280;5776;51.814;4.510;2022-11-04T13:12:37;100946.13;;;11.44;100.00
11440;BME280;5776;51.814;4.510;2022-11-04T13:17:38;100956.44;;;11.48;100.00
11440;BME280;5776;51.814;4.510;2022-11-04T13:20:16;100961.28;;;11.51;100.00
11440;BME280;5776;51.814;4.510;2022-11-04T13:22:47;100969.38;;;11.56;100.00
11440;BME280;5776;51.814;4.510;2022-11-04T13:25:30;100972.94;;;11.56;100.00
11440;BME280;5776;51.814;4.510;2022-11-04T13:27:59;100972.72;;;11.72;100.00
11440;BME280;5776;51.814;4.510;2022-11-04T13:30:30;100983.44;;;11.87;100.00
11440;BME280;5776;51.814;4.510;2022-11-04T13:36:00;100986.63;;;11.94;100.00
11440;BME280;5776;51.814;4.510;2022-11-04T13:38:59;100990.41;;;11.93;100.00
11440;BME280;5776;51.814;4.510;2022-11-04T13:44:28;101008.38;;;11.94;100.00
11440;BME280;5776;51.814;4.510;2022-11-04T13:46:58;101016.03;;;11.92;100.00
11440;BME280;5776;51.814;4.510;2022-11-04T13:49:28;101010.59;;;11.92;100.00
11440;BME280;5776;51.814;4.510;2022-11-04T13:54:52;101027.72;;;11.93;100.00
11440;BME280;5776;51.814;4.510;2022-11-04T13:57:22;101032.88;;;11.94;100.00
11440;BME280;5776;51.814;4.510;2022-11-04T14:00:29;101036.41;;;11.95;100.00
11440;BME280;5776;51.814;4.510;2022-11-04T14:02:54;101031.25;;;11.93;100.00
11440;BME280;5776;51.814;4.510;2022-11-04T14:10:42;101031.25;;;11.93;100.00
11440;BME280;5776;51.814;4.510;2022-11-04T14:16:35;101034.78;;;11.94;100.00
11440;BME280;5776;51.814;4.510;2022-11-04T14:18:54;101033.16;;;11.93;100.00
11440;BME280;5776;51.814;4.510;2022-11-04T14:21:23;101042.13;;;11.93;100.00
11440;BME280;5776;51.814;4.510;2022-11-04T14:23:54;101037.81;;;11.92;100.00
11440;BME280;5776;51.814;4.510;2022-11-04T14:29:02;101045.38;;;11.95;100.00
11440;BME280;5776;51.814;4.510;2022-11-04T14:31:44;101048.09;;;11.95;100.00
11440;BME280;5776;51.814;4.510;2022-11-04T14:36:56;101048.09;;;11.95;100.00
11440;BME280;5776;51.814;4.510;2022-11-04T14:39:26;101060.91;;;11.95;100.00
11440;BME280;5776;51.814;4.510;2022-11-04T14:42:00;101053.81;;;11.94;100.00
11440;BME280;5776;51.814;4.510;2022-11-04T14:44:41;101050.00;;;11.95;100.00
11440;BME280;5776;51.814;4.510;2022-11-04T14:47:18;101059.78;;;11.96;100.00
11440;BME280;5776;51.814;4.510;2022-11-04T14:49:48;101058.19;;;11.95;100.00
11440;BME280;5776;51.814;4.510;2022-11-04T14:52:20;101063.31;;;11.96;100.00
11440;BME280;5776;51.814;4.510;2022-11-04T14:54:46;101055.47;;;11.95;100.00
11440;BME280;5776;51.814;4.510;2022-11-04T14:57:19;101069.06;;;11.95;100.00
11440;BME280;5776;51.814;4.510;2022-11-04T14:59:45;101078.03;;;11.95;100.00
11440;BME280;5776;51.814;4.510;2022-11-04T15:02:19;101076.13;;;11.96;100.00
11440;BME280;5776;51.814;4.510;2022-11-04T15:04:55;101084.59;;;11.94;100.00
11440;BME280;5776;51.814;4.510;2022-11-04T15:07:35;101092.75;;;11.94;100.00
11440;BME280;5776;51.814;4.510;2022-11-04T15:10:26;101092.44;;;11.96;100.00
11440;BME280;5776;51.814;4.510;2022-11-04T15:13:00;101091.94;;;11.94;100.00
11440;BME280;5776;51.814;4.510;2022-11-04T15:15:35;101086.47;;;11.94;100.00
11440;BME280;5776;51.814;4.510;2022-11-04T15:18:08;101097.97;;;11.91;100.00
11440;BME280;5776;51.814;4.510;2022-11-04T15:20:48;101100.72;;;11.85;100.00